createdAt,value
2023-02-03T00:00:04.031Z,11.27
2023-02-03T00:02:12.679Z,7.60
2023-02-03T00:04:23.666Z,6.23
2023-02-03T00:06:33.882Z,10.07
2023-02-03T00:08:43.210Z,6.30
2023-02-03T00:10:52.531Z,9.90
2023-02-03T00:13:01.928Z,9.03
2023-02-03T00:15:11.633Z,7.67
2023-02-03T00:17:20.657Z,6.57
2023-02-03T00:19:30.758Z,8.17
2023-02-03T00:21:39.771Z,6.43
2023-02-03T00:23:48.816Z,8.20
2023-02-03T00:25:57.875Z,11.00
2023-02-03T00:28:07.004Z,11.57
2023-02-03T00:30:15.842Z,13.37
2023-02-03T00:32:24.737Z,7.77
2023-02-03T00:34:35.359Z,11.47
2023-02-03T00:36:44.037Z,10.03
2023-02-03T00:38:53.294Z,12.83
2023-02-03T00:41:01.917Z,9.17
2023-02-03T00:43:10.950Z,10.87
2023-02-03T00:45:19.627Z,7.40
2023-02-03T00:47:28.637Z,12.10
2023-02-03T00:49:38.972Z,11.83
2023-02-03T00:51:47.794Z,8.73
2023-02-03T00:53:56.810Z,8.30
2023-02-03T00:56:12.829Z,16.40
2023-02-03T00:58:21.556Z,9.53
2023-02-03T01:00:30.262Z,9.30
2023-02-03T01:02:39.135Z,8.27
2023-02-03T01:04:49.618Z,13.80
2023-02-03T01:07:00.581Z,12.33
2023-02-03T01:09:09.782Z,9.53
2023-02-03T01:11:19.838Z,8.07
2023-02-03T01:13:28.932Z,8.10
2023-02-03T01:15:37.504Z,6.27
2023-02-03T01:17:46.831Z,6.10
2023-02-03T01:19:57.912Z,5.43
2023-02-03T01:22:06.980Z,10.00
2023-02-03T01:24:16.471Z,5.23
2023-02-03T01:26:25.928Z,5.63
2023-02-03T01:28:34.826Z,5.73
2023-02-03T01:30:43.695Z,11.23
2023-02-03T01:32:52.342Z,7.20
2023-02-03T01:35:02.608Z,5.13
2023-02-03T01:37:11.540Z,5.47
2023-02-03T01:39:20.400Z,6.40
2023-02-03T01:41:30.998Z,5.07
2023-02-03T01:43:41.429Z,6.00
2023-02-03T01:45:50.117Z,6.63
2023-02-03T01:48:00.589Z,9.53
2023-02-03T01:50:15.260Z,5.93
2023-02-03T01:52:24.285Z,7.53
2023-02-03T01:54:34.769Z,5.20
2023-02-03T01:56:46.763Z,9.13
2023-02-03T01:58:55.717Z,5.50
2023-02-03T02:01:04.678Z,4.60
2023-02-03T02:03:13.510Z,5.47
2023-02-03T02:05:27.778Z,3.70
2023-02-03T02:07:37.873Z,6.60
2023-02-03T02:09:46.804Z,4.53
2023-02-03T02:11:55.927Z,7.83
2023-02-03T02:14:05.070Z,6.07
2023-02-03T02:16:15.160Z,8.83
2023-02-03T02:18:30.854Z,7.70
2023-02-03T02:20:54.821Z,4.60
2023-02-03T02:23:13.427Z,3.57
2023-02-03T02:25:46.522Z,7.43
2023-02-03T02:28:04.860Z,5.47
2023-02-03T02:30:22.338Z,9.70
2023-02-03T02:32:37.169Z,7.47
2023-02-03T02:34:52.090Z,4.90
2023-02-03T02:37:04.200Z,6.57
2023-02-03T02:39:15.399Z,4.83
2023-02-03T02:41:28.043Z,5.40
2023-02-03T02:43:40.102Z,5.50
2023-02-03T02:45:50.518Z,3.43
2023-02-03T02:48:03.701Z,5.73
2023-02-03T02:50:16.934Z,8.97
2023-02-03T02:52:26.691Z,4.80
2023-02-03T02:54:37.301Z,5.43
2023-02-03T02:56:48.007Z,2.63
2023-02-03T02:58:57.673Z,4.07
2023-02-03T03:01:07.076Z,4.97
2023-02-03T03:03:18.327Z,3.27
2023-02-03T03:05:29.226Z,3.43
2023-02-03T03:07:39.034Z,2.70
2023-02-03T03:09:50.657Z,4.80
2023-02-03T03:12:01.888Z,3.70
2023-02-03T03:14:13.008Z,5.57
2023-02-03T03:16:27.575Z,3.90
2023-02-03T03:18:40.103Z,3.30
2023-02-03T03:20:49.562Z,6.30
2023-02-03T03:23:02.299Z,2.90
2023-02-03T03:25:13.702Z,5.07
2023-02-03T03:27:24.824Z,4.57
2023-02-03T03:29:36.376Z,3.23
2023-02-03T03:31:45.389Z,3.33
2023-02-03T03:33:56.036Z,3.43
2023-02-03T03:36:07.800Z,4.17
2023-02-03T03:38:20.330Z,2.87
2023-02-03T03:40:31.509Z,2.20
2023-02-03T03:42:43.157Z,4.57
2023-02-03T03:44:54.885Z,7.63
2023-02-03T03:47:19.468Z,3.87
2023-02-03T03:49:31.166Z,5.77
2023-02-03T03:51:44.546Z,5.67
2023-02-03T03:53:54.485Z,3.80
2023-02-03T03:56:04.487Z,3.57
2023-02-03T03:58:15.372Z,3.13
2023-02-03T04:00:25.727Z,1.90
2023-02-03T04:02:35.936Z,2.50
2023-02-03T04:04:46.876Z,2.77
2023-02-03T04:06:56.297Z,4.50
2023-02-03T04:09:06.051Z,4.83
2023-02-03T04:11:35.472Z,3.43
2023-02-03T04:13:44.151Z,3.73
2023-02-03T04:15:53.154Z,3.70
2023-02-03T04:18:02.658Z,5.10
2023-02-03T04:20:14.084Z,5.83
2023-02-03T04:22:23.547Z,5.87
2023-02-03T04:24:32.567Z,5.70
2023-02-03T04:26:41.483Z,4.03
2023-02-03T04:28:50.472Z,4.10
2023-02-03T04:31:03.107Z,6.67
2023-02-03T04:33:12.357Z,4.43
2023-02-03T04:35:22.884Z,3.00
2023-02-03T04:37:31.406Z,6.37
2023-02-03T04:39:40.459Z,3.20
2023-02-03T04:41:49.351Z,4.73
2023-02-03T04:43:58.417Z,3.10
2023-02-03T04:46:07.602Z,4.23
2023-02-03T04:48:16.719Z,1.83
2023-02-03T04:50:27.843Z,2.80
2023-02-03T04:52:37.141Z,4.00
2023-02-03T04:54:45.863Z,2.47
2023-02-03T04:56:54.645Z,4.13
2023-02-03T04:59:04.116Z,1.50
2023-02-03T05:01:13.484Z,3.37
2023-02-03T05:03:24.935Z,3.70
2023-02-03T05:05:36.300Z,3.23
2023-02-03T05:07:45.360Z,3.03
2023-02-03T05:09:54.226Z,4.90
2023-02-03T05:12:03.098Z,2.83
2023-02-03T05:14:12.113Z,3.73
2023-02-03T05:16:21.175Z,6.63
2023-02-03T05:18:29.932Z,1.97
2023-02-03T05:20:40.485Z,3.80
2023-02-03T05:22:49.516Z,2.03
2023-02-03T05:24:58.321Z,3.03
2023-02-03T05:27:07.425Z,3.40
2023-02-03T05:29:16.395Z,4.87
2023-02-03T05:31:25.240Z,3.03
2023-02-03T05:33:34.174Z,2.77
2023-02-03T05:35:44.569Z,4.17
2023-02-03T05:37:53.178Z,5.77
2023-02-03T05:40:15.567Z,3.67
2023-02-03T05:42:24.631Z,7.47
2023-02-03T05:44:33.508Z,3.80
2023-02-03T05:46:42.118Z,3.47
2023-02-03T05:48:52.421Z,3.67
2023-02-03T05:51:03.196Z,4.40
2023-02-03T05:53:11.868Z,4.63
2023-02-03T05:55:20.795Z,4.03
2023-02-03T05:57:32.125Z,7.87
2023-02-03T05:59:40.851Z,2.23
2023-02-03T06:01:49.429Z,4.73
2023-02-03T06:03:58.808Z,2.87
2023-02-03T06:06:09.137Z,4.53
2023-02-03T06:08:17.921Z,2.27
2023-02-03T06:10:27.249Z,4.30
2023-02-03T06:12:36.033Z,4.13
2023-02-03T06:14:44.971Z,3.13
2023-02-03T06:16:53.658Z,1.77
2023-02-03T06:19:02.549Z,4.23
2023-02-03T06:21:12.740Z,3.73
2023-02-03T06:23:21.521Z,4.37
2023-02-03T06:25:32.559Z,7.03
2023-02-03T06:27:41.739Z,3.70
2023-02-03T06:29:51.263Z,8.17
2023-02-03T06:32:00.592Z,3.87
2023-02-03T06:34:09.603Z,4.50
2023-02-03T06:36:20.299Z,8.07
2023-02-03T06:38:29.349Z,3.80
2023-02-03T06:40:38.329Z,10.67
2023-02-03T06:42:48.426Z,5.63
2023-02-03T06:44:56.930Z,8.67
2023-02-03T06:47:05.841Z,9.63
2023-02-03T06:49:15.324Z,5.57
2023-02-03T06:51:25.816Z,6.73
2023-02-03T06:53:34.978Z,6.53
2023-02-03T06:55:44.025Z,5.30
2023-02-03T06:57:53.989Z,7.53
2023-02-03T07:00:03.043Z,8.57
2023-02-03T07:02:12.791Z,7.60
2023-02-03T07:04:24.201Z,5.80
2023-02-03T07:06:35.219Z,7.27
2023-02-03T07:08:44.170Z,9.47
2023-02-03T07:10:55.966Z,5.60
2023-02-03T07:13:05.449Z,4.20
2023-02-03T07:15:15.283Z,11.67
2023-02-03T07:17:23.979Z,8.93
2023-02-03T07:19:32.982Z,8.30
2023-02-03T07:21:43.837Z,7.27
2023-02-03T07:23:53.272Z,7.57
2023-02-03T07:26:03.162Z,6.77
2023-02-03T07:28:12.219Z,6.43
2023-02-03T07:30:21.028Z,8.67
2023-02-03T07:32:32.259Z,7.10
2023-02-03T07:34:41.651Z,5.57
2023-02-03T07:36:52.510Z,13.37
2023-02-03T07:39:01.655Z,4.17
2023-02-03T07:41:10.298Z,12.93
2023-02-03T07:43:19.087Z,4.80
2023-02-03T07:45:28.111Z,5.47
2023-02-03T07:47:37.045Z,10.87
2023-02-03T07:49:45.779Z,10.07
2023-02-03T07:51:56.845Z,5.70
2023-02-03T07:54:05.720Z,7.63
2023-02-03T07:56:14.803Z,5.57
2023-02-03T07:58:23.742Z,5.00
2023-02-03T08:00:32.565Z,7.60
2023-02-03T08:02:41.789Z,5.17
2023-02-03T08:04:50.690Z,5.53
2023-02-03T08:07:01.228Z,4.33
2023-02-03T08:09:10.047Z,4.50
2023-02-03T08:11:18.874Z,5.40
2023-02-03T08:13:27.602Z,6.33
2023-02-03T08:15:36.271Z,6.10
2023-02-03T08:17:45.368Z,4.97
2023-02-03T08:19:54.413Z,11.23
2023-02-03T08:22:04.881Z,8.43
2023-02-03T08:24:14.311Z,8.27
2023-02-03T08:26:23.037Z,8.17
2023-02-03T08:28:32.119Z,6.23
2023-02-03T08:30:41.084Z,8.30
2023-02-03T08:32:49.856Z,14.33
2023-02-03T08:34:58.861Z,9.53
2023-02-03T08:37:09.299Z,10.37
2023-02-03T08:39:17.908Z,10.80
2023-02-03T08:41:26.991Z,7.67
2023-02-03T08:43:36.488Z,8.00
2023-02-03T08:45:45.575Z,5.90
2023-02-03T08:47:54.427Z,7.30
2023-02-03T08:50:03.048Z,8.87
2023-02-03T08:52:13.972Z,9.57
2023-02-03T08:54:23.805Z,7.90
2023-02-03T08:56:34.552Z,5.93
2023-02-03T08:58:43.141Z,11.23
2023-02-03T09:00:53.419Z,9.00
2023-02-03T09:03:02.196Z,6.33
2023-02-03T09:05:11.557Z,10.57
2023-02-03T09:07:22.276Z,9.57
2023-02-03T09:09:31.106Z,12.47
2023-02-03T09:11:40.248Z,12.73
2023-02-03T09:13:50.190Z,15.60
2023-02-03T09:16:02.198Z,15.23
2023-02-03T09:18:11.127Z,11.67
2023-02-03T09:20:20.159Z,12.57
2023-02-03T09:22:30.699Z,12.40
2023-02-03T09:24:39.514Z,16.47
2023-02-03T09:26:48.405Z,12.00
2023-02-03T09:28:57.153Z,10.13
2023-02-03T09:31:06.766Z,11.30
2023-02-03T09:33:15.452Z,10.03
2023-02-03T09:35:27.011Z,11.90
2023-02-03T09:37:37.373Z,15.30
2023-02-03T09:39:46.420Z,10.03
2023-02-03T09:42:04.474Z,10.03
2023-02-03T09:44:17.845Z,8.77
2023-02-03T09:46:28.865Z,8.07
2023-02-03T09:48:40.027Z,9.00
2023-02-03T09:50:49.921Z,6.87
2023-02-03T09:53:01.153Z,8.20
2023-02-03T09:55:14.286Z,8.43
2023-02-03T09:57:24.279Z,8.03
2023-02-03T09:59:35.640Z,6.97
2023-02-03T10:01:48.079Z,8.03
2023-02-03T10:04:02.561Z,8.07
2023-02-03T10:06:20.674Z,5.80
2023-02-03T10:08:38.245Z,5.07
2023-02-03T10:10:50.343Z,5.97
2023-02-03T10:13:04.512Z,8.20
2023-02-03T10:15:21.520Z,5.03
2023-02-03T10:17:32.567Z,5.13
2023-02-03T10:19:45.239Z,6.60
2023-02-03T10:21:55.772Z,3.03
2023-02-03T10:24:08.734Z,2.90
2023-02-03T10:26:19.175Z,3.30
2023-02-03T10:28:29.899Z,2.50
2023-02-03T10:30:45.660Z,1.43
2023-02-03T10:32:56.413Z,2.67
2023-02-03T10:35:06.177Z,2.37
2023-02-03T10:37:20.040Z,3.47
2023-02-03T10:39:34.960Z,1.73
2023-02-03T10:41:43.843Z,1.63
2023-02-03T10:43:55.537Z,2.10
2023-02-03T10:46:05.757Z,4.20
2023-02-03T10:48:18.036Z,2.27
2023-02-03T10:50:32.210Z,2.67
2023-02-03T10:52:41.012Z,1.70
2023-02-03T10:54:51.280Z,2.43
2023-02-03T10:57:04.129Z,2.93
2023-02-03T10:59:27.621Z,3.83
2023-02-03T11:01:42.348Z,2.23
2023-02-03T11:03:59.623Z,6.70
2023-02-03T11:06:10.241Z,2.70
2023-02-03T11:08:19.465Z,3.77
2023-02-03T11:10:31.131Z,2.27
2023-02-03T11:12:39.872Z,3.03
2023-02-03T11:14:50.002Z,2.87
2023-02-03T11:16:59.214Z,1.83
2023-02-03T11:19:11.026Z,0.80
2023-02-03T11:21:20.922Z,1.20
2023-02-03T11:23:29.508Z,2.57
2023-02-03T11:25:39.944Z,2.97
2023-02-03T11:27:48.838Z,0.90
2023-02-03T11:30:12.947Z,1.20
2023-02-03T11:32:23.631Z,1.57
2023-02-03T11:34:34.467Z,0.97
2023-02-03T11:36:43.840Z,3.07
2023-02-03T11:38:52.756Z,0.60
2023-02-03T11:41:02.940Z,2.07
2023-02-03T11:43:18.017Z,2.10
2023-02-03T11:45:28.523Z,2.57
2023-02-03T11:47:38.485Z,1.17
2023-02-03T11:50:08.191Z,1.23
2023-02-03T11:52:24.072Z,1.07
2023-02-03T11:54:37.138Z,0.90
2023-02-03T11:56:55.384Z,1.27
2023-02-03T11:59:21.901Z,2.17
2023-02-03T12:01:42.658Z,1.47
2023-02-03T12:04:09.888Z,1.37
2023-02-03T12:06:33.848Z,1.63
2023-02-03T12:08:48.017Z,0.83
2023-02-03T12:11:02.815Z,0.83
2023-02-03T12:13:19.214Z,2.77
2023-02-03T12:15:32.828Z,1.90
2023-02-03T12:17:48.023Z,1.70
2023-02-03T12:20:14.008Z,0.83
2023-02-03T12:22:27.589Z,1.03
2023-02-03T12:24:39.822Z,0.63
2023-02-03T12:26:51.045Z,0.63
2023-02-03T12:29:04.349Z,1.10
2023-02-03T12:31:16.791Z,1.73
2023-02-03T12:33:28.063Z,0.97
2023-02-03T12:35:38.846Z,2.00
2023-02-03T12:37:49.955Z,1.33
2023-02-03T12:40:01.641Z,0.77
2023-02-03T12:42:15.109Z,0.77
2023-02-03T12:44:26.219Z,0.80
2023-02-03T12:46:40.772Z,0.70
2023-02-03T12:48:52.609Z,0.97
2023-02-03T12:51:03.583Z,0.97
2023-02-03T12:53:15.412Z,1.43
2023-02-03T12:55:27.615Z,2.87
2023-02-03T12:57:37.319Z,1.43
2023-02-03T13:00:03.380Z,1.23
2023-02-03T13:02:18.800Z,1.00
2023-02-03T13:04:31.915Z,1.27
2023-02-03T13:06:45.211Z,1.73
2023-02-03T13:08:56.938Z,2.17
2023-02-03T13:11:11.463Z,1.90
2023-02-03T13:13:26.145Z,1.67
2023-02-03T13:15:36.355Z,2.97
2023-02-03T13:17:49.289Z,3.90
2023-02-03T13:20:00.602Z,3.30
2023-02-03T13:22:13.529Z,3.83
2023-02-03T13:24:23.810Z,4.20
2023-02-03T13:26:48.781Z,1.37
2023-02-03T13:29:05.451Z,2.50
2023-02-03T13:31:25.347Z,1.40
2023-02-03T13:33:52.460Z,3.53
2023-02-03T13:36:09.560Z,1.40
2023-02-03T13:38:33.445Z,2.77
2023-02-03T13:40:47.931Z,5.00
2023-02-03T13:42:59.106Z,2.13
2023-02-03T13:45:11.603Z,2.83
2023-02-03T13:47:22.521Z,0.87
2023-02-03T13:49:32.863Z,1.57
2023-02-03T13:51:46.911Z,1.43
2023-02-03T13:54:01.020Z,2.63
2023-02-03T13:56:11.848Z,1.50
2023-02-03T13:58:25.271Z,1.93
2023-02-03T14:00:52.661Z,1.90
2023-02-03T14:03:01.497Z,2.13
2023-02-03T14:05:11.556Z,2.90
2023-02-03T14:07:31.616Z,5.33
2023-02-03T14:09:44.147Z,2.30
2023-02-03T14:11:53.038Z,2.20
2023-02-03T14:14:21.717Z,1.93
2023-02-03T14:16:36.558Z,2.13
2023-02-03T14:18:48.790Z,1.77
2023-02-03T14:21:00.103Z,5.40
2023-02-03T14:23:13.689Z,2.23
2023-02-03T14:25:23.369Z,1.87
2023-02-03T14:27:33.069Z,2.10
2023-02-03T14:29:42.027Z,2.00
2023-02-03T14:31:58.756Z,2.20
2023-02-03T14:34:14.416Z,2.13
2023-02-03T14:36:38.111Z,2.97
2023-02-03T14:38:48.914Z,1.80
2023-02-03T14:40:59.377Z,1.67
2023-02-03T14:43:25.958Z,2.37
2023-02-03T14:45:43.911Z,1.03
2023-02-03T14:48:01.045Z,1.97
2023-02-03T14:50:16.193Z,2.47
2023-02-03T14:52:30.343Z,5.43
2023-02-03T14:54:48.613Z,1.67
2023-02-03T14:57:17.283Z,1.77
2023-02-03T14:59:27.760Z,2.30
2023-02-03T15:01:51.961Z,2.23
2023-02-03T15:04:23.920Z,2.20
2023-02-03T15:06:40.610Z,2.73
2023-02-03T15:08:50.449Z,2.30
2023-02-03T15:11:00.622Z,2.00
2023-02-03T15:13:24.234Z,3.27
2023-02-03T15:15:34.212Z,3.53
2023-02-03T15:17:43.164Z,2.73
2023-02-03T15:19:52.602Z,5.87
2023-02-03T15:22:01.772Z,4.43
2023-02-03T15:24:13.051Z,6.70
2023-02-03T15:26:24.478Z,3.40
2023-02-03T15:28:33.207Z,3.43
2023-02-03T15:30:42.361Z,4.50
2023-02-03T15:32:56.129Z,4.60
2023-02-03T15:35:07.607Z,5.47
2023-02-03T15:37:20.138Z,3.97
2023-02-03T15:39:37.583Z,5.60
2023-02-03T15:41:51.597Z,5.77
2023-02-03T15:44:02.495Z,3.30
2023-02-03T15:46:18.338Z,4.63
2023-02-03T15:48:32.143Z,3.87
2023-02-03T15:50:44.649Z,2.50
2023-02-03T15:52:55.931Z,2.63
2023-02-03T15:55:08.150Z,14.83
2023-02-03T15:57:20.867Z,15.67
2023-02-03T15:59:33.948Z,12.00
2023-02-03T16:01:43.254Z,24.17
2023-02-03T16:03:53.814Z,3.63
2023-02-03T16:06:08.188Z,8.87
2023-02-03T16:08:46.370Z,6.07
2023-02-03T16:10:55.581Z,2.97
2023-02-03T16:13:25.798Z,13.43
2023-02-03T16:15:34.966Z,19.00
2023-02-03T16:17:43.834Z,17.33
2023-02-03T16:19:53.525Z,18.87
2023-02-03T16:22:02.540Z,10.30
2023-02-03T16:24:26.591Z,17.37
2023-02-03T16:26:38.745Z,12.50
2023-02-03T16:29:16.553Z,6.13
2023-02-03T16:31:43.483Z,6.60
2023-02-03T16:34:10.157Z,4.00
2023-02-03T16:36:36.449Z,3.57
2023-02-03T16:39:04.551Z,5.17
2023-02-03T16:41:34.637Z,4.00
2023-02-03T16:44:00.898Z,4.50
2023-02-03T16:46:31.425Z,2.03
2023-02-03T16:48:58.203Z,2.87
2023-02-03T16:51:09.014Z,3.07
2023-02-03T16:53:19.703Z,4.20
2023-02-03T16:55:29.033Z,1.57
2023-02-03T16:57:37.702Z,3.47
2023-02-03T16:59:46.843Z,3.27
2023-02-03T17:01:57.524Z,2.00
2023-02-03T17:04:07.187Z,3.03
2023-02-03T17:06:16.594Z,3.47
2023-02-03T17:08:26.785Z,3.40
2023-02-03T17:10:36.287Z,1.87
2023-02-03T17:12:46.283Z,1.20
2023-02-03T17:14:58.546Z,0.80
2023-02-03T17:17:08.650Z,3.90
2023-02-03T17:19:17.871Z,3.73
2023-02-03T17:21:28.110Z,1.17
2023-02-03T17:23:36.955Z,1.20
2023-02-03T17:25:47.248Z,2.20
2023-02-03T17:27:55.951Z,0.63
2023-02-03T17:30:05.394Z,1.63
2023-02-03T17:32:17.402Z,2.13
2023-02-03T17:34:26.364Z,1.87
2023-02-03T17:36:35.317Z,1.97
2023-02-03T17:53:33.144Z,0.57
2023-02-03T17:55:41.886Z,1.30
2023-02-03T17:57:50.684Z,0.83
2023-02-03T18:00:00.187Z,2.10
2023-02-03T18:02:09.029Z,1.63
2023-02-03T18:04:19.625Z,2.27
2023-02-03T18:06:29.868Z,0.73
2023-02-03T18:08:39.054Z,3.13
2023-02-03T18:10:48.489Z,1.13
2023-02-03T18:12:57.268Z,0.60
2023-02-03T18:15:06.464Z,0.80
2023-02-03T18:17:15.388Z,0.73
2023-02-03T18:19:25.750Z,1.13
2023-02-03T18:21:36.983Z,1.47
2023-02-03T18:23:46.791Z,1.03
2023-02-03T18:25:55.850Z,1.70
2023-02-03T18:28:04.857Z,1.77
2023-02-03T18:30:15.249Z,1.90
2023-02-03T18:32:24.062Z,1.90
2023-02-03T18:34:34.136Z,1.00
2023-02-03T18:36:43.674Z,2.80
2023-02-03T18:38:52.738Z,1.70
2023-02-03T18:41:01.738Z,1.40
2023-02-03T18:43:10.411Z,1.83
2023-02-03T18:45:19.535Z,1.53
2023-02-03T18:47:28.897Z,3.67
2023-02-03T18:49:41.010Z,2.00
2023-02-03T18:51:49.612Z,1.60
2023-02-03T18:53:59.220Z,1.30
2023-02-03T18:56:08.829Z,2.33
2023-02-03T18:58:17.903Z,4.27
2023-02-03T19:00:27.128Z,1.17
2023-02-03T19:02:35.932Z,1.87
2023-02-03T19:04:46.214Z,2.70
2023-02-03T19:06:55.205Z,3.73
2023-02-03T19:09:05.631Z,1.17
2023-02-03T19:11:14.934Z,2.77
2023-02-03T19:13:24.707Z,1.53
2023-02-03T19:15:33.420Z,1.33
2023-02-03T19:17:42.892Z,3.37
2023-02-03T19:19:53.706Z,3.50
2023-02-03T19:22:02.286Z,1.83
2023-02-03T19:24:11.090Z,2.77
2023-02-03T19:26:19.926Z,3.67
2023-02-03T19:28:31.236Z,3.77
2023-02-03T19:30:40.909Z,2.37
2023-02-03T19:32:49.819Z,1.83
2023-02-03T19:35:00.580Z,3.47
2023-02-03T19:37:09.358Z,1.73
2023-02-03T19:39:18.834Z,1.20
2023-02-03T19:41:28.000Z,1.53
2023-02-03T19:43:36.895Z,1.60
2023-02-03T19:45:45.615Z,1.37
2023-02-03T19:47:55.345Z,2.60
2023-02-03T19:50:06.721Z,2.90
2023-02-03T19:52:15.514Z,1.17
2023-02-03T19:54:24.545Z,1.27
2023-02-03T19:56:33.425Z,2.93
2023-02-03T19:58:42.242Z,4.57
2023-02-03T20:00:50.839Z,2.73
2023-02-03T20:02:59.567Z,3.03
2023-02-03T20:05:11.314Z,4.37
2023-02-03T20:07:20.607Z,2.57
2023-02-03T20:09:29.340Z,1.43
2023-02-03T20:11:38.087Z,3.03
2023-02-03T20:13:46.675Z,2.37
2023-02-03T20:15:55.637Z,2.63
2023-02-03T20:18:04.705Z,0.97
2023-02-03T20:20:15.699Z,4.47
2023-02-03T20:22:24.752Z,1.50
2023-02-03T20:24:33.422Z,2.93
2023-02-03T20:26:42.581Z,1.63
2023-02-03T20:28:51.415Z,1.43
2023-02-03T20:31:01.365Z,2.70
2023-02-03T20:33:10.560Z,1.47
2023-02-03T20:35:24.079Z,1.57
2023-02-03T20:37:33.052Z,2.87
2023-02-03T20:39:41.952Z,2.03
2023-02-03T20:41:51.284Z,3.20
2023-02-03T20:44:00.126Z,1.73
2023-02-03T20:46:11.790Z,1.67
2023-02-03T20:48:22.787Z,2.07
2023-02-03T20:50:42.361Z,1.37
2023-02-03T20:52:52.528Z,3.20
2023-02-03T20:55:01.555Z,3.17
2023-02-03T20:57:15.263Z,3.60
2023-02-03T20:59:23.978Z,0.70
2023-02-03T21:01:33.260Z,2.37
2023-02-03T21:03:59.287Z,2.77
2023-02-03T21:06:18.248Z,1.80
2023-02-03T21:08:28.025Z,0.70
2023-02-03T21:10:37.599Z,1.77
2023-02-03T21:12:46.684Z,1.60
2023-02-03T21:14:55.558Z,2.63
2023-02-03T21:17:04.282Z,4.60
2023-02-03T21:19:14.059Z,3.40
2023-02-03T21:21:27.908Z,2.10
2023-02-03T21:23:40.600Z,3.63
2023-02-03T21:25:49.655Z,1.93
2023-02-03T21:27:59.644Z,1.00
2023-02-03T21:30:24.377Z,2.30
2023-02-03T21:32:37.151Z,6.60
2023-02-03T21:34:46.588Z,2.53
2023-02-03T21:36:57.260Z,6.80
2023-02-03T21:39:14.571Z,4.00
2023-02-03T21:41:23.972Z,3.50
2023-02-03T21:43:38.308Z,4.07
2023-02-03T21:45:47.779Z,4.90
2023-02-03T21:47:58.564Z,2.53
2023-02-03T21:50:27.048Z,0.97
2023-02-03T21:52:37.780Z,2.87
2023-02-03T21:54:48.006Z,1.73
2023-02-03T21:56:56.694Z,2.77
2023-02-03T21:59:05.852Z,3.43
2023-02-03T22:01:17.995Z,2.50
2023-02-03T22:03:28.425Z,6.20
2023-02-03T22:05:37.448Z,0.87
2023-02-03T22:07:47.933Z,2.30
2023-02-03T22:09:56.672Z,1.60
2023-02-03T22:12:05.717Z,2.17
2023-02-03T22:14:14.560Z,1.00
2023-02-03T22:16:23.814Z,1.73
2023-02-03T22:18:33.216Z,2.33
2023-02-03T22:20:42.256Z,1.93
2023-02-03T22:22:53.043Z,1.40
2023-02-03T22:25:02.096Z,3.43
2023-02-03T22:27:11.284Z,2.47
2023-02-03T22:29:20.138Z,1.27
2023-02-03T22:31:29.006Z,2.97
2023-02-03T22:33:37.887Z,1.70
2023-02-03T22:35:47.120Z,2.90
2023-02-03T22:37:59.228Z,5.30
2023-02-03T22:40:09.744Z,1.83
2023-02-03T22:42:18.373Z,3.33
2023-02-03T22:44:27.609Z,1.77
2023-02-03T22:46:36.828Z,1.63
2023-02-03T22:48:46.322Z,3.53
2023-02-03T22:50:55.148Z,3.13
2023-02-03T22:53:07.065Z,1.30
2023-02-03T22:55:15.978Z,6.30
2023-02-03T22:57:25.006Z,1.07
2023-02-03T22:59:33.588Z,1.20
2023-02-03T23:01:43.051Z,2.83
2023-02-03T23:03:52.411Z,1.17
2023-02-03T23:06:01.428Z,2.90
2023-02-03T23:08:12.097Z,2.70
2023-02-03T23:10:22.357Z,3.67
2023-02-03T23:12:31.156Z,3.80
2023-02-03T23:14:40.288Z,1.90
2023-02-03T23:16:49.412Z,2.80
2023-02-03T23:18:58.193Z,1.60
2023-02-03T23:21:07.066Z,0.60
2023-02-03T23:23:17.732Z,2.07
2023-02-03T23:25:26.724Z,2.77
2023-02-03T23:27:36.025Z,1.20
2023-02-03T23:29:44.631Z,1.73
2023-02-03T23:31:53.435Z,3.30
2023-02-03T23:34:19.753Z,1.07
2023-02-03T23:36:28.389Z,2.57
2023-02-03T23:38:38.763Z,1.77
2023-02-03T23:40:47.973Z,1.43
2023-02-03T23:42:57.213Z,2.53
2023-02-03T23:45:08.251Z,2.93
2023-02-03T23:47:17.368Z,2.57
2023-02-03T23:49:26.356Z,1.13
2023-02-03T23:51:35.124Z,3.90
2023-02-03T23:53:45.343Z,1.53
2023-02-03T23:55:54.329Z,0.40
2023-02-03T23:58:02.907Z,1.33
